Agia Irini Chrisoval — SV3972 — position and weather

sailwx.info

Track history (hours):
 
Tides and Currents Weather Stations Pressure Air Temp Water Temp Dewpoint Dewpoint Depression Visibility Wind Speed Wind Dir Waves Ship Positions

Agia Irini Chrisoval

Last reported at 2018-Jul-19 05:00 UTC. Time now 2018-Jul-19 23:00 UTC.
Position N 37°56' E 023°39'.

Length 22 m.

Type: Fishing. MMSI: 237562000.

Date/timePositionNaut miles runAvg speedWind from/ knotsBaromVisibWave heightAir tempDewpointWater temp
2018-Jul-19 05:00N 37°56' E 023°39'3 5.9
2018-Jul-19 04:30N 37°53' E 023°37'3 5.3
2018-Jul-19 04:00N 37°51' E 023°35'1 1.1
2018-Jul-19 03:30N 37°51' E 023°34'0 0.2
2018-Jul-19 02:57N 37°51' E 023°34'0 0.1
2018-Jul-19 02:30N 37°51' E 023°34'0 0.1
2018-Jul-19 02:00N 37°51' E 023°34'0 0.1
2018-Jul-19 01:30N 37°51' E 023°34'0 0.8
2018-Jul-19 01:00N 37°51' E 023°34'0 0.5
2018-Jul-19 00:30N 37°51' E 023°34'0 0.8
2018-Jul-18 23:59N 37°51' E 023°34'1 2.9
2018-Jul-18 23:30N 37°51' E 023°36'2 3.8
2018-Jul-18 23:00N 37°51' E 023°38'0 0.2
2018-Jul-18 22:30N 37°51' E 023°38'1 1.4
2018-Jul-18 22:00N 37°51' E 023°39'2 4.1
2018-Jul-18 21:30N 37°50' E 023°42'1 2.3
2018-Jul-18 21:00N 37°50' E 023°43'1 1.6
2018-Jul-18 20:30N 37°50' E 023°43'1 2.3
2018-Jul-18 20:00N 37°51' E 023°42'4 7.3
2018-Jul-18 19:30N 37°54' E 023°39'4 7.2
2018-Jul-18 19:00N 37°57' E 023°36'1 0.0
2018-Jul-17 01:44N 37°57' E 023°36'5 3.9
2018-Jul-17 00:34N 37°54' E 023°39'0 0.1
2018-Jul-17 00:30N 37°54' E 023°39'0 0.1
2018-Jul-16 23:23N 37°53' E 023°39'0 0.2
2018-Jul-16 23:00N 37°53' E 023°39'1 1.6
2018-Jul-16 22:30N 37°54' E 023°39'0 0.2
2018-Jul-16 22:00N 37°54' E 023°39'0 0.3
2018-Jul-16 21:30N 37°54' E 023°39'0 0.4
2018-Jul-16 21:00N 37°54' E 023°39'0 0.4
2018-Jul-16 20:30N 37°54' E 023°39'1 1.1
2018-Jul-16 20:00N 37°54' E 023°39'1 1.5
2018-Jul-16 19:29N 37°55' E 023°39'1 0.1
2018-Jul-16 03:14N 37°56' E 023°40'1 6.3
2018-Jul-16 03:00N 37°55' E 023°38'3 5.6
2018-Jul-16 02:30N 37°54' E 023°35'0 0.1
2018-Jul-16 02:00N 37°54' E 023°35'2 4.9
2018-Jul-16 01:30N 37°52' E 023°34'2 3.5
2018-Jul-16 01:00N 37°50' E 023°35'0 0.3
2018-Jul-16 00:30N 37°50' E 023°35'0 0.4
2018-Jul-16 00:01N 37°50' E 023°35'0 0.3
2018-Jul-15 23:30N 37°51' E 023°35'0 0.3
2018-Jul-15 23:00N 37°51' E 023°35'0 0.2
2018-Jul-15 22:30N 37°50' E 023°35'2 3.3
2018-Jul-15 22:00N 37°51' E 023°37'2 3.4
2018-Jul-15 21:30N 37°51' E 023°39'4 0.1
2018-Jul-14 03:04N 37°55' E 023°38'0 6.1
2018-Jul-14 03:00N 37°55' E 023°38'3 6.4
2018-Jul-14 02:31N 37°54' E 023°34'1 1.2
2018-Jul-14 02:00N 37°54' E 023°35'0 0.3
2018-Jul-14 01:30N 37°55' E 023°35'0 0.1
2018-Jul-14 01:00N 37°55' E 023°35'1 2.9
2018-Jul-14 00:31N 37°53' E 023°36'2 4.0
2018-Jul-14 00:00N 37°52' E 023°37'0 0.2
2018-Jul-13 23:30N 37°52' E 023°37'1 1.3
2018-Jul-13 23:00N 37°52' E 023°36'0 0.4
2018-Jul-13 22:31N 37°52' E 023°36'0 0.2
2018-Jul-13 22:01N 37°52' E 023°36'1 2.4
2018-Jul-13 21:30N 37°52' E 023°37'1 1.3
2018-Jul-13 21:01N 37°52' E 023°37'1 1.3
2018-Jul-13 20:31N 37°52' E 023°38'1 1.1
2018-Jul-13 20:01N 37°52' E 023°37'2 4.8
2018-Jul-13 19:31N 37°54' E 023°39'  
2018-Jul-11 03:04N 37°56' E 023°39'0 6.9
2018-Jul-11 03:00N 37°56' E 023°39'3 6.1
2018-Jul-11 02:30N 37°54' E 023°35'3 0.1
2018-Jul-10 03:04N 37°57' E 023°37'0 0.1
2018-Jul-10 03:00N 37°57' E 023°37'0 0.1
2018-Jul-10 02:30N 37°57' E 023°37'1 1.3
2018-Jul-10 02:00N 37°57' E 023°36'3 6.6
2018-Jul-10 01:30N 37°54' E 023°38'3 6.5
2018-Jul-10 01:00N 37°52' E 023°41'2 4.0
2018-Jul-10 00:30N 37°51' E 023°43'0 0.1
2018-Jul-10 00:00N 37°51' E 023°43'0 0.2
2018-Jul-09 23:30N 37°51' E 023°43'0 0.5
2018-Jul-09 23:00N 37°51' E 023°43'0 0.4
2018-Jul-09 22:30N 37°51' E 023°43'1 2.6
2018-Jul-09 22:00N 37°50' E 023°45'0 0.0
2018-Jul-09 21:30N 37°50' E 023°45'0 0.1
2018-Jul-09 21:00N 37°50' E 023°45'0 0.0
2018-Jul-09 20:30N 37°50' E 023°45'0 0.0
2018-Jul-09 20:00N 37°50' E 023°45'1 2.8
2018-Jul-09 19:30N 37°51' E 023°43'0 0.1
2018-Jul-09 19:00N 37°51' E 023°43'3 6.2
2018-Jul-09 18:30N 37°53' E 023°41'3 6.2
2018-Jul-09 18:00N 37°56' E 023°40'0 0.1
2018-Jul-09 17:30N 37°56' E 023°40'0 0.0
2018-Jul-09 17:00N 37°56' E 023°40'0 0.0
2018-Jul-09 16:30N 37°56' E 023°40'0 0.0
2018-Jul-09 16:00N 37°56' E 023°40'0 0.0
2018-Jul-09 15:30N 37°56' E 023°40'0 0.0
2018-Jul-09 14:58N 37°56' E 023°40'0 0.0
2018-Jul-09 14:30N 37°56' E 023°40'0 0.0
2018-Jul-09 14:00N 37°56' E 023°40'0 0.0
2018-Jul-09 13:30N 37°56' E 023°40'0 0.0
2018-Jul-09 13:00N 37°56' E 023°40'0 0.0
2018-Jul-09 12:30N 37°56' E 023°40'0 0.0
2018-Jul-09 12:00N 37°56' E 023°40'0 0.0
2018-Jul-09 11:30N 37°56' E 023°40'0 0.0
2018-Jul-09 11:00N 37°56' E 023°40'0 0.0
2018-Jul-09 10:30N 37°56' E 023°40'0 0.0
2018-Jul-09 10:00N 37°56' E 023°40'0 0.0
2018-Jul-09 09:30N 37°56' E 023°40'0 0.0
2018-Jul-09 09:00N 37°56' E 023°40'0 0.0
2018-Jul-09 08:30N 37°56' E 023°40'0 0.0
2018-Jul-09 08:00N 37°56' E 023°40'0 0.0
2018-Jul-09 07:30N 37°56' E 023°40'0 0.0
2018-Jul-09 07:00N 37°56' E 023°40'0 0.0
2018-Jul-09 06:30N 37°56' E 023°40'0 0.0
2018-Jul-09 06:00N 37°56' E 023°40'0 0.0
2018-Jul-09 05:30N 37°56' E 023°40'  
Track history (hours):
 
Tides and Currents Weather Stations Pressure Air Temp Water Temp Dewpoint Dewpoint Depression Visibility Wind Speed Wind Dir Waves Ship Positions

Agia Irini Chrisoval

Last reported at 2018-Jul-19 05:00 UTC. Time now 2018-Jul-19 23:00 UTC.
Position N 37°56' E 023°39'.

Length 22 m.

Type: Fishing. MMSI: 237562000.

Date/timePositionNaut miles runAvg speedWind from/ knotsBaromVisibWave heightAir tempDewpointWater temp
2018-Jul-19 05:00N 37°56' E 023°39'3 5.9
2018-Jul-19 04:30N 37°53' E 023°37'3 5.3
2018-Jul-19 04:00N 37°51' E 023°35'1 1.1
2018-Jul-19 03:30N 37°51' E 023°34'0 0.2
2018-Jul-19 02:57N 37°51' E 023°34'0 0.1
2018-Jul-19 02:30N 37°51' E 023°34'0 0.1
2018-Jul-19 02:00N 37°51' E 023°34'0 0.1
2018-Jul-19 01:30N 37°51' E 023°34'0 0.8
2018-Jul-19 01:00N 37°51' E 023°34'0 0.5
2018-Jul-19 00:30N 37°51' E 023°34'0 0.8
2018-Jul-18 23:59N 37°51' E 023°34'1 2.9
2018-Jul-18 23:30N 37°51' E 023°36'2 3.8
2018-Jul-18 23:00N 37°51' E 023°38'0 0.2
2018-Jul-18 22:30N 37°51' E 023°38'1 1.4
2018-Jul-18 22:00N 37°51' E 023°39'2 4.1
2018-Jul-18 21:30N 37°50' E 023°42'1 2.3
2018-Jul-18 21:00N 37°50' E 023°43'1 1.6
2018-Jul-18 20:30N 37°50' E 023°43'1 2.3
2018-Jul-18 20:00N 37°51' E 023°42'4 7.3
2018-Jul-18 19:30N 37°54' E 023°39'4 7.2
2018-Jul-18 19:00N 37°57' E 023°36'1 0.0
2018-Jul-17 01:44N 37°57' E 023°36'5 3.9
2018-Jul-17 00:34N 37°54' E 023°39'0 0.1
2018-Jul-17 00:30N 37°54' E 023°39'0 0.1
2018-Jul-16 23:23N 37°53' E 023°39'0 0.2
2018-Jul-16 23:00N 37°53' E 023°39'1 1.6
2018-Jul-16 22:30N 37°54' E 023°39'0 0.2
2018-Jul-16 22:00N 37°54' E 023°39'0 0.3
2018-Jul-16 21:30N 37°54' E 023°39'0 0.4
2018-Jul-16 21:00N 37°54' E 023°39'0 0.4
2018-Jul-16 20:30N 37°54' E 023°39'1 1.1
2018-Jul-16 20:00N 37°54' E 023°39'1 1.5
2018-Jul-16 19:29N 37°55' E 023°39'1 0.1
2018-Jul-16 03:14N 37°56' E 023°40'1 6.3
2018-Jul-16 03:00N 37°55' E 023°38'3 5.6
2018-Jul-16 02:30N 37°54' E 023°35'0 0.1
2018-Jul-16 02:00N 37°54' E 023°35'2 4.9
2018-Jul-16 01:30N 37°52' E 023°34'2 3.5
2018-Jul-16 01:00N 37°50' E 023°35'0 0.3
2018-Jul-16 00:30N 37°50' E 023°35'0 0.4
2018-Jul-16 00:01N 37°50' E 023°35'0 0.3
2018-Jul-15 23:30N 37°51' E 023°35'0 0.3
2018-Jul-15 23:00N 37°51' E 023°35'0 0.2
2018-Jul-15 22:30N 37°50' E 023°35'2 3.3
2018-Jul-15 22:00N 37°51' E 023°37'2 3.4
2018-Jul-15 21:30N 37°51' E 023°39'4 0.1
2018-Jul-14 03:04N 37°55' E 023°38'0 6.1
2018-Jul-14 03:00N 37°55' E 023°38'3 6.4
2018-Jul-14 02:31N 37°54' E 023°34'1 1.2
2018-Jul-14 02:00N 37°54' E 023°35'0 0.3
2018-Jul-14 01:30N 37°55' E 023°35'0 0.1
2018-Jul-14 01:00N 37°55' E 023°35'1 2.9
2018-Jul-14 00:31N 37°53' E 023°36'2 4.0
2018-Jul-14 00:00N 37°52' E 023°37'0 0.2
2018-Jul-13 23:30N 37°52' E 023°37'1 1.3
2018-Jul-13 23:00N 37°52' E 023°36'0 0.4
2018-Jul-13 22:31N 37°52' E 023°36'0 0.2
2018-Jul-13 22:01N 37°52' E 023°36'1 2.4
2018-Jul-13 21:30N 37°52' E 023°37'1 1.3
2018-Jul-13 21:01N 37°52' E 023°37'1 1.3
2018-Jul-13 20:31N 37°52' E 023°38'1 1.1
2018-Jul-13 20:01N 37°52' E 023°37'2 4.8
2018-Jul-13 19:31N 37°54' E 023°39'  
2018-Jul-11 03:04N 37°56' E 023°39'0 6.9
2018-Jul-11 03:00N 37°56' E 023°39'3 6.1
2018-Jul-11 02:30N 37°54' E 023°35'3 0.1
2018-Jul-10 03:04N 37°57' E 023°37'0 0.1
2018-Jul-10 03:00N 37°57' E 023°37'0 0.1
2018-Jul-10 02:30N 37°57' E 023°37'1 1.3
2018-Jul-10 02:00N 37°57' E 023°36'3 6.6
2018-Jul-10 01:30N 37°54' E 023°38'3 6.5
2018-Jul-10 01:00N 37°52' E 023°41'2 4.0
2018-Jul-10 00:30N 37°51' E 023°43'0 0.1
2018-Jul-10 00:00N 37°51' E 023°43'0 0.2
2018-Jul-09 23:30N 37°51' E 023°43'0 0.5
2018-Jul-09 23:00N 37°51' E 023°43'0 0.4
2018-Jul-09 22:30N 37°51' E 023°43'1 2.6
2018-Jul-09 22:00N 37°50' E 023°45'0 0.0
2018-Jul-09 21:30N 37°50' E 023°45'0 0.1
2018-Jul-09 21:00N 37°50' E 023°45'0 0.0
2018-Jul-09 20:30N 37°50' E 023°45'0 0.0
2018-Jul-09 20:00N 37°50' E 023°45'1 2.8
2018-Jul-09 19:30N 37°51' E 023°43'0 0.1
2018-Jul-09 19:00N 37°51' E 023°43'3 6.2
2018-Jul-09 18:30N 37°53' E 023°41'3 6.2
2018-Jul-09 18:00N 37°56' E 023°40'0 0.1
2018-Jul-09 17:30N 37°56' E 023°40'0 0.0
2018-Jul-09 17:00N 37°56' E 023°40'0 0.0
2018-Jul-09 16:30N 37°56' E 023°40'0 0.0
2018-Jul-09 16:00N 37°56' E 023°40'0 0.0
2018-Jul-09 15:30N 37°56' E 023°40'0 0.0
2018-Jul-09 14:58N 37°56' E 023°40'0 0.0
2018-Jul-09 14:30N 37°56' E 023°40'0 0.0
2018-Jul-09 14:00N 37°56' E 023°40'0 0.0
2018-Jul-09 13:30N 37°56' E 023°40'0 0.0
2018-Jul-09 13:00N 37°56' E 023°40'0 0.0
2018-Jul-09 12:30N 37°56' E 023°40'0 0.0
2018-Jul-09 12:00N 37°56' E 023°40'0 0.0
2018-Jul-09 11:30N 37°56' E 023°40'0 0.0
2018-Jul-09 11:00N 37°56' E 023°40'0 0.0
2018-Jul-09 10:30N 37°56' E 023°40'0 0.0
2018-Jul-09 10:00N 37°56' E 023°40'0 0.0
2018-Jul-09 09:30N 37°56' E 023°40'0 0.0
2018-Jul-09 09:00N 37°56' E 023°40'0 0.0
2018-Jul-09 08:30N 37°56' E 023°40'0 0.0
2018-Jul-09 08:00N 37°56' E 023°40'0 0.0
2018-Jul-09 07:30N 37°56' E 023°40'0 0.0
2018-Jul-09 07:00N 37°56' E 023°40'0 0.0
2018-Jul-09 06:30N 37°56' E 023°40'0 0.0
2018-Jul-09 06:00N 37°56' E 023°40'0 0.0
2018-Jul-09 05:30N 37°56' E 023°40'  

Dump ship's entire track history